createdAt,value
2018-07-31T00:00:24.478Z,7.37
2018-07-31T00:02:51.655Z,6.60
2018-07-31T00:05:18.855Z,6.93
2018-07-31T00:07:46.016Z,6.60
2018-07-31T00:10:13.219Z,7.07
2018-07-31T00:12:40.455Z,7.10
2018-07-31T00:15:08.943Z,7.10
2018-07-31T00:17:36.117Z,7.20
2018-07-31T00:20:03.698Z,9.40
2018-07-31T00:22:31.165Z,7.73
2018-07-31T00:24:58.591Z,6.70
2018-07-31T00:27:26.244Z,7.63
2018-07-31T00:29:53.463Z,7.40
2018-07-31T00:32:20.705Z,7.53
2018-07-31T00:34:49.960Z,8.10
2018-07-31T00:37:17.118Z,8.23
2018-07-31T00:39:44.307Z,7.73
2018-07-31T00:42:11.617Z,7.53
2018-07-31T00:44:38.758Z,7.17
2018-07-31T00:47:05.939Z,7.80
2018-07-31T00:49:33.306Z,7.60
2018-07-31T00:52:00.820Z,8.23
2018-07-31T00:54:28.319Z,7.53
2018-07-31T00:56:55.888Z,7.97
2018-07-31T00:59:23.015Z,9.03
2018-07-31T01:01:50.192Z,7.67
2018-07-31T01:04:17.465Z,7.47
2018-07-31T01:06:44.685Z,8.70
2018-07-31T01:09:13.063Z,8.10
2018-07-31T01:11:40.429Z,7.37
2018-07-31T01:14:08.403Z,8.17
2018-07-31T01:16:36.089Z,8.27
2018-07-31T01:19:03.787Z,7.60
2018-07-31T01:21:31.108Z,7.67
2018-07-31T01:23:58.425Z,8.80
2018-07-31T01:26:26.370Z,8.20
2018-07-31T01:28:53.513Z,8.23
2018-07-31T01:31:20.812Z,8.77
2018-07-31T01:33:48.063Z,8.47
2018-07-31T01:36:15.214Z,8.53
2018-07-31T01:38:42.339Z,8.03
2018-07-31T01:41:09.645Z,8.67
2018-07-31T01:43:36.828Z,8.57
2018-07-31T01:46:04.153Z,7.93
2018-07-31T01:48:31.604Z,8.90
2018-07-31T01:50:58.897Z,7.50
2018-07-31T01:53:26.340Z,8.43
2018-07-31T01:55:53.729Z,8.90
2018-07-31T01:58:20.928Z,9.13
2018-07-31T02:00:48.048Z,8.27
2018-07-31T02:03:15.216Z,8.83
2018-07-31T02:05:42.424Z,8.63
2018-07-31T02:08:09.721Z,9.07
2018-07-31T02:10:37.048Z,8.83
2018-07-31T02:13:04.187Z,9.00
2018-07-31T02:15:31.626Z,9.23
2018-07-31T02:17:59.199Z,8.87
2018-07-31T02:20:26.756Z,9.20
2018-07-31T02:22:54.271Z,9.53
2018-07-31T02:25:22.628Z,10.30
2018-07-31T02:27:49.787Z,12.13
2018-07-31T02:30:19.898Z,9.87
2018-07-31T02:32:51.541Z,10.10
2018-07-31T02:35:18.728Z,8.83
2018-07-31T02:37:45.880Z,8.87
2018-07-31T02:40:13.560Z,9.87
2018-07-31T02:42:40.778Z,8.97
2018-07-31T02:45:09.986Z,9.90
2018-07-31T02:47:37.219Z,11.03
2018-07-31T02:50:04.935Z,10.33
2018-07-31T02:52:32.339Z,10.10
2018-07-31T02:54:59.836Z,10.70
2018-07-31T02:57:27.327Z,11.67
2018-07-31T02:59:54.899Z,10.10
2018-07-31T03:02:22.573Z,10.23
2018-07-31T03:04:49.746Z,9.47
2018-07-31T03:07:17.915Z,10.47
2018-07-31T03:09:45.082Z,9.87
2018-07-31T03:12:12.245Z,10.20
2018-07-31T03:14:39.391Z,11.23
2018-07-31T03:17:06.550Z,10.20
2018-07-31T03:19:33.786Z,10.13
2018-07-31T03:22:01.192Z,10.23
2018-07-31T03:24:28.710Z,11.00
2018-07-31T03:26:56.208Z,11.23
2018-07-31T03:29:24.228Z,10.80
2018-07-31T03:31:52.170Z,10.87
2018-07-31T03:34:19.507Z,10.20
2018-07-31T03:36:46.660Z,10.73
2018-07-31T03:39:13.888Z,11.27
2018-07-31T03:41:40.991Z,10.57
2018-07-31T03:44:08.195Z,9.97
2018-07-31T03:46:35.415Z,11.67
2018-07-31T03:49:02.971Z,11.17
2018-07-31T03:51:30.312Z,11.03
2018-07-31T03:53:57.768Z,10.70
2018-07-31T03:56:25.054Z,12.87
2018-07-31T03:58:52.683Z,11.10
2018-07-31T04:01:19.905Z,10.80
2018-07-31T04:03:47.081Z,11.93
2018-07-31T04:06:14.291Z,10.77
2018-07-31T04:08:41.418Z,11.53
2018-07-31T04:11:08.508Z,10.67
2018-07-31T04:13:35.669Z,10.83
2018-07-31T04:16:02.881Z,11.87
2018-07-31T04:18:30.164Z,11.27
2018-07-31T04:20:57.537Z,11.27
2018-07-31T04:23:25.087Z,10.87
2018-07-31T04:25:52.219Z,11.73
2018-07-31T04:28:19.400Z,13.27
2018-07-31T04:30:46.534Z,10.83
2018-07-31T04:33:13.688Z,11.10
2018-07-31T04:35:40.852Z,11.00
2018-07-31T04:38:07.985Z,11.70
2018-07-31T04:40:35.168Z,12.17
2018-07-31T04:43:02.355Z,10.90
2018-07-31T04:45:29.552Z,11.07
2018-07-31T04:47:56.722Z,11.33
2018-07-31T04:50:24.021Z,11.07
2018-07-31T04:52:51.293Z,11.23
2018-07-31T04:55:18.604Z,11.30
2018-07-31T04:57:46.198Z,12.13
2018-07-31T05:00:13.473Z,11.10
2018-07-31T05:02:40.610Z,11.50
2018-07-31T05:05:08.362Z,12.00
2018-07-31T05:07:37.289Z,11.67
2018-07-31T05:10:06.202Z,11.63
2018-07-31T05:12:33.479Z,11.37
2018-07-31T05:15:01.278Z,10.93
2018-07-31T05:17:28.614Z,11.70
2018-07-31T05:19:57.094Z,11.83
2018-07-31T05:22:24.817Z,11.07
2018-07-31T05:24:53.160Z,11.37
2018-07-31T05:27:21.129Z,12.37
2018-07-31T05:29:50.185Z,12.23
2018-07-31T05:32:18.139Z,10.83
2018-07-31T05:34:46.735Z,10.77
2018-07-31T05:37:15.430Z,10.90
2018-07-31T05:39:43.070Z,11.37
2018-07-31T05:42:10.552Z,10.70
2018-07-31T05:44:38.203Z,10.67
2018-07-31T05:47:05.535Z,10.23
2018-07-31T05:49:33.273Z,9.80
2018-07-31T05:52:00.849Z,10.80
2018-07-31T05:54:29.265Z,11.43
2018-07-31T05:56:56.759Z,9.87
2018-07-31T05:59:24.363Z,9.60
2018-07-31T06:01:52.563Z,12.10
2018-07-31T06:04:22.691Z,9.77
2018-07-31T06:06:50.842Z,10.33
2018-07-31T06:09:19.786Z,9.07
2018-07-31T06:11:47.803Z,11.40
2018-07-31T06:14:17.515Z,9.67
2018-07-31T06:16:46.833Z,9.57
2018-07-31T06:19:15.235Z,9.83
2018-07-31T06:21:42.547Z,10.20
2018-07-31T06:24:10.225Z,10.23
2018-07-31T06:26:38.865Z,9.23
2018-07-31T06:29:05.985Z,10.07
2018-07-31T06:31:33.485Z,9.73
2018-07-31T06:34:00.894Z,10.60
2018-07-31T06:36:28.085Z,10.00
2018-07-31T06:38:55.656Z,10.80
2018-07-31T06:41:23.034Z,9.57
2018-07-31T06:43:50.532Z,9.40
2018-07-31T06:46:18.377Z,9.73
2018-07-31T06:48:46.653Z,8.90
2018-07-31T06:51:14.092Z,10.17
2018-07-31T06:53:41.327Z,10.20
2018-07-31T06:56:08.516Z,9.70
2018-07-31T06:58:35.682Z,10.07
2018-07-31T07:01:03.013Z,9.07
2018-07-31T07:03:30.369Z,10.73
2018-07-31T07:05:57.629Z,12.53
2018-07-31T07:08:25.998Z,9.03
2018-07-31T07:10:53.427Z,9.33
2018-07-31T07:13:21.308Z,11.43
2018-07-31T07:15:49.352Z,9.10
2018-07-31T07:18:16.977Z,8.87
2018-07-31T07:20:44.818Z,9.07
2018-07-31T07:23:12.158Z,9.03
2018-07-31T07:25:39.315Z,8.27
2018-07-31T07:28:06.566Z,9.40
2018-07-31T07:30:33.857Z,9.10
2018-07-31T07:33:00.983Z,11.57
2018-07-31T07:35:28.286Z,8.27
2018-07-31T07:37:55.784Z,8.13
2018-07-31T07:40:23.097Z,10.63
2018-07-31T07:42:50.517Z,9.10
2018-07-31T07:45:18.459Z,8.80
2018-07-31T07:47:46.404Z,9.43
2018-07-31T07:50:14.016Z,9.33
2018-07-31T07:52:41.369Z,8.43
2018-07-31T07:55:08.644Z,8.53
2018-07-31T07:57:36.011Z,8.57
2018-07-31T08:00:04.789Z,8.90
2018-07-31T08:02:31.911Z,7.27
2018-07-31T08:04:59.410Z,8.83
2018-07-31T08:07:26.667Z,9.00
2018-07-31T08:09:54.176Z,7.50
2018-07-31T08:12:21.656Z,7.53
2018-07-31T08:14:49.376Z,7.30
2018-07-31T08:17:17.512Z,8.87
2018-07-31T08:19:45.196Z,7.70
2018-07-31T08:22:13.289Z,8.87
2018-07-31T08:24:40.548Z,9.50
2018-07-31T08:27:07.976Z,9.17
2018-07-31T08:29:36.012Z,7.27
2018-07-31T08:32:03.331Z,7.80
2018-07-31T08:34:31.046Z,9.73
2018-07-31T08:36:58.345Z,7.93
2018-07-31T08:39:25.704Z,9.00
2018-07-31T08:41:53.351Z,11.63
2018-07-31T08:44:21.035Z,9.57
2018-07-31T08:46:48.533Z,8.73
2018-07-31T08:49:16.257Z,7.77
2018-07-31T08:51:44.175Z,6.70
2018-07-31T08:54:11.446Z,7.50
2018-07-31T08:56:38.700Z,7.30
2018-07-31T08:59:06.004Z,9.57
2018-07-31T09:01:33.205Z,8.33
2018-07-31T09:04:00.438Z,7.57
2018-07-31T09:06:27.612Z,7.13
2018-07-31T09:08:55.285Z,8.47
2018-07-31T09:11:22.778Z,7.70
2018-07-31T09:13:50.206Z,7.73
2018-07-31T09:16:18.069Z,10.07
2018-07-31T09:18:46.094Z,9.08
2018-07-31T09:21:13.579Z,11.00
2018-07-31T09:23:41.038Z,7.47
2018-07-31T09:26:08.317Z,7.37
2018-07-31T09:28:35.583Z,8.87
2018-07-31T09:31:10.487Z,6.55
2018-07-31T09:33:37.653Z,6.30
2018-07-31T09:36:04.955Z,6.20
2018-07-31T09:38:32.174Z,6.08
2018-07-31T09:40:59.479Z,6.30
2018-07-31T09:43:26.844Z,6.67
2018-07-31T09:45:54.439Z,10.30
2018-07-31T09:48:22.128Z,6.65
2018-07-31T09:50:49.774Z,7.67
2018-07-31T09:53:17.635Z,6.25
2018-07-31T09:55:46.105Z,7.15
2018-07-31T09:58:13.540Z,6.47
2018-07-31T10:00:46.510Z,6.58
2018-07-31T10:03:13.923Z,6.47
2018-07-31T10:05:41.107Z,6.65
2018-07-31T10:08:08.552Z,7.87
2018-07-31T10:10:35.848Z,6.37
2018-07-31T10:13:03.020Z,6.03
2018-07-31T10:15:30.325Z,6.05
2018-07-31T10:17:57.611Z,6.60
2018-07-31T10:20:25.050Z,7.05
2018-07-31T10:22:52.811Z,6.17
2018-07-31T10:25:20.947Z,5.55
2018-07-31T10:27:48.634Z,5.92
2018-07-31T10:30:16.295Z,5.70
2018-07-31T10:32:43.747Z,6.00
2018-07-31T10:35:11.380Z,7.53
2018-07-31T10:37:38.978Z,6.58
2018-07-31T10:40:06.736Z,6.95
2018-07-31T10:42:33.910Z,5.83
2018-07-31T10:45:01.186Z,6.10
2018-07-31T10:47:28.407Z,5.08
2018-07-31T10:49:55.807Z,5.45
2018-07-31T10:52:23.616Z,5.42
2018-07-31T10:54:51.270Z,5.85
2018-07-31T10:57:18.685Z,5.67
2018-07-31T10:59:46.843Z,7.95
2018-07-31T11:02:14.963Z,5.92
2018-07-31T11:04:42.128Z,7.28
2018-07-31T11:07:09.743Z,6.03
2018-07-31T11:09:36.865Z,5.50
2018-07-31T11:12:04.068Z,4.90
2018-07-31T11:14:31.248Z,5.25
2018-07-31T11:16:58.376Z,5.25
2018-07-31T11:19:25.587Z,7.25
2018-07-31T11:21:53.658Z,5.05
2018-07-31T11:24:21.355Z,5.45
2018-07-31T11:26:48.836Z,5.40
2018-07-31T11:29:16.570Z,6.25
2018-07-31T11:31:45.250Z,5.05
2018-07-31T11:34:12.648Z,5.35
2018-07-31T11:36:39.889Z,5.50
2018-07-31T11:39:08.880Z,5.30
2018-07-31T11:41:36.452Z,4.90
2018-07-31T11:44:03.679Z,5.30
2018-07-31T11:46:31.042Z,4.95
2018-07-31T11:48:58.168Z,6.12
2018-07-31T11:51:25.362Z,5.67
2018-07-31T11:53:53.198Z,5.10
2018-07-31T11:56:20.728Z,5.53
2018-07-31T11:58:48.131Z,5.80
2018-07-31T12:01:16.128Z,5.83
2018-07-31T12:03:43.792Z,5.70
2018-07-31T12:06:11.113Z,5.72
2018-07-31T12:08:38.532Z,5.50
2018-07-31T12:11:05.818Z,5.80
2018-07-31T12:13:32.951Z,7.70
2018-07-31T12:16:00.327Z,6.25
2018-07-31T12:18:27.544Z,6.10
2018-07-31T12:20:55.169Z,6.15
2018-07-31T12:23:22.536Z,6.45
2018-07-31T12:25:50.139Z,5.65
2018-07-31T12:28:18.008Z,7.47
2018-07-31T12:30:46.908Z,5.85
2018-07-31T12:33:15.172Z,6.42
2018-07-31T12:35:42.303Z,5.90
2018-07-31T12:38:09.530Z,6.12
2018-07-31T12:40:36.848Z,7.17
2018-07-31T12:43:03.979Z,6.33
2018-07-31T12:45:31.155Z,6.70
2018-07-31T12:47:58.323Z,6.20
2018-07-31T12:50:25.811Z,6.65
2018-07-31T12:52:53.448Z,6.40
2018-07-31T12:55:20.992Z,6.25
2018-07-31T12:57:48.772Z,5.60
2018-07-31T13:00:16.509Z,5.85
2018-07-31T13:02:44.829Z,5.92
2018-07-31T13:05:12.027Z,5.92
2018-07-31T13:07:39.287Z,6.15
2018-07-31T13:10:06.486Z,6.20
2018-07-31T13:12:33.644Z,7.42
2018-07-31T13:15:00.808Z,6.00
2018-07-31T13:17:27.983Z,6.45
2018-07-31T13:19:55.208Z,6.33
2018-07-31T13:22:22.709Z,6.58
2018-07-31T13:24:50.373Z,7.12
2018-07-31T13:27:17.899Z,5.62
2018-07-31T13:29:45.739Z,5.75
2018-07-31T13:32:13.927Z,5.83
2018-07-31T13:34:41.152Z,6.12
2018-07-31T13:37:08.892Z,6.40
2018-07-31T13:39:36.149Z,5.83
2018-07-31T13:42:08.945Z,5.83
2018-07-31T13:44:36.169Z,6.22
2018-07-31T13:47:03.460Z,6.33
2018-07-31T13:49:30.646Z,6.05
2018-07-31T13:51:57.916Z,6.12
2018-07-31T13:54:25.141Z,6.08
2018-07-31T13:56:52.631Z,6.47
2018-07-31T13:59:20.181Z,6.50
2018-07-31T14:01:47.972Z,6.45
2018-07-31T14:04:15.793Z,5.87
2018-07-31T14:06:43.148Z,5.53
2018-07-31T14:09:10.936Z,6.08
2018-07-31T14:11:38.153Z,6.08
2018-07-31T14:14:05.357Z,6.12
2018-07-31T14:16:32.830Z,6.45
2018-07-31T14:18:59.992Z,5.90
2018-07-31T14:21:27.180Z,6.12
2018-07-31T14:23:54.465Z,5.72
2018-07-31T14:26:21.828Z,6.90
2018-07-31T14:28:49.288Z,6.65
2018-07-31T14:31:17.200Z,6.37
2018-07-31T14:33:45.251Z,5.58
2018-07-31T14:36:12.527Z,5.90
2018-07-31T14:38:39.743Z,5.62
2018-07-31T14:41:07.054Z,5.58
2018-07-31T14:43:34.249Z,6.28
2018-07-31T14:46:01.364Z,6.90
2018-07-31T14:48:28.544Z,5.87
2018-07-31T14:50:55.777Z,5.72
2018-07-31T14:53:23.164Z,5.40
2018-07-31T14:55:50.441Z,6.20
2018-07-31T14:58:18.062Z,6.05
2018-07-31T15:00:45.557Z,5.28
2018-07-31T15:03:12.858Z,6.45
2018-07-31T15:05:40.132Z,6.40
2018-07-31T15:08:07.320Z,5.45
2018-07-31T15:10:34.738Z,5.75
2018-07-31T15:13:02.154Z,5.25
2018-07-31T15:15:29.334Z,5.87
2018-07-31T15:17:57.272Z,5.72
2018-07-31T15:20:24.601Z,5.20
2018-07-31T15:22:51.818Z,5.67
2018-07-31T15:25:19.176Z,5.30
2018-07-31T15:27:46.596Z,6.35
2018-07-31T15:30:14.103Z,5.90
2018-07-31T15:32:41.841Z,5.60
2018-07-31T15:35:09.049Z,5.87
2018-07-31T15:37:36.173Z,5.28
2018-07-31T15:40:03.721Z,5.55
2018-07-31T15:42:31.293Z,5.60
2018-07-31T15:44:58.399Z,5.22
2018-07-31T15:47:25.522Z,6.83
2018-07-31T15:49:52.801Z,5.37
2018-07-31T15:52:20.312Z,4.90
2018-07-31T15:54:47.732Z,5.90
2018-07-31T15:57:15.383Z,5.58
2018-07-31T15:59:43.239Z,5.17
2018-07-31T16:02:10.820Z,5.80
2018-07-31T16:04:38.084Z,5.45
2018-07-31T16:07:05.346Z,5.53
2018-07-31T16:09:32.535Z,5.40
2018-07-31T16:12:00.938Z,5.22
2018-07-31T16:14:28.081Z,5.80
2018-07-31T16:16:55.211Z,5.53
2018-07-31T16:19:22.899Z,5.62
2018-07-31T16:21:50.524Z,5.40
2018-07-31T16:24:18.206Z,5.33
2018-07-31T16:26:45.807Z,6.10
2018-07-31T16:29:13.455Z,5.30
2018-07-31T16:31:40.781Z,6.72
2018-07-31T16:34:08.059Z,5.35
2018-07-31T16:36:35.165Z,5.72
2018-07-31T16:39:02.368Z,6.15
2018-07-31T16:41:29.669Z,5.47
2018-07-31T16:43:56.851Z,5.40
2018-07-31T16:46:23.999Z,5.78
2018-07-31T16:48:51.403Z,5.33
2018-07-31T16:51:18.743Z,7.05
2018-07-31T16:53:46.225Z,5.95
2018-07-31T16:56:14.885Z,5.28
2018-07-31T16:58:42.689Z,5.20
2018-07-31T17:01:10.158Z,5.80
2018-07-31T17:03:37.732Z,6.30
2018-07-31T17:06:05.445Z,5.62
2018-07-31T17:08:32.978Z,6.05
2018-07-31T17:11:00.322Z,9.93
2018-07-31T17:13:27.480Z,5.50
2018-07-31T17:15:54.591Z,4.95
2018-07-31T17:18:21.870Z,6.45
2018-07-31T17:20:49.098Z,5.40
2018-07-31T17:23:16.207Z,5.70
2018-07-31T17:25:43.417Z,5.50
2018-07-31T17:28:10.648Z,5.20
2018-07-31T17:30:37.882Z,5.83
2018-07-31T17:33:05.055Z,8.87
2018-07-31T17:35:32.852Z,5.92
2018-07-31T17:38:00.506Z,6.90
2018-07-31T17:40:28.303Z,7.97
2018-07-31T17:42:56.567Z,5.67
2018-07-31T17:45:24.513Z,5.87
2018-07-31T17:47:51.719Z,6.97
2018-07-31T17:50:18.876Z,6.13
2018-07-31T17:52:46.180Z,8.50
2018-07-31T17:55:14.237Z,10.93
2018-07-31T17:57:41.449Z,6.37
2018-07-31T18:00:08.592Z,5.87
2018-07-31T18:02:35.808Z,6.30
2018-07-31T18:05:03.363Z,6.23
2018-07-31T18:07:31.059Z,9.13
2018-07-31T18:09:59.119Z,6.63
2018-07-31T18:12:26.350Z,6.30
2018-07-31T18:14:53.516Z,7.43
2018-07-31T18:17:20.708Z,5.67
2018-07-31T18:19:47.962Z,5.70
2018-07-31T18:22:15.147Z,5.47
2018-07-31T18:24:50.170Z,5.57
2018-07-31T18:27:17.393Z,5.80
2018-07-31T18:29:44.589Z,5.87
2018-07-31T18:32:12.333Z,6.27
2018-07-31T18:34:39.834Z,5.70
2018-07-31T18:37:07.535Z,6.53
2018-07-31T18:39:35.663Z,6.37
2018-07-31T18:42:03.580Z,5.90
2018-07-31T18:44:31.203Z,6.03
2018-07-31T18:46:58.659Z,5.87
2018-07-31T18:49:26.618Z,6.20
2018-07-31T18:51:54.873Z,6.50
2018-07-31T18:54:22.339Z,6.17
2018-07-31T18:56:49.508Z,6.37
2018-07-31T18:59:16.954Z,6.37
2018-07-31T19:01:44.946Z,6.03
2018-07-31T19:04:12.114Z,7.23
2018-07-31T19:06:40.262Z,6.17
2018-07-31T19:09:11.155Z,6.20
2018-07-31T19:11:39.144Z,6.37
2018-07-31T19:14:06.669Z,7.27
2018-07-31T19:16:34.787Z,6.87
2018-07-31T19:19:02.595Z,7.20
2018-07-31T19:21:30.554Z,7.90
2018-07-31T19:23:58.002Z,7.97
2018-07-31T19:26:25.240Z,10.83
2018-07-31T19:28:52.385Z,8.33
2018-07-31T19:31:19.570Z,8.10
2018-07-31T19:33:46.843Z,8.10
2018-07-31T19:36:14.048Z,7.77
2018-07-31T19:38:41.478Z,7.40
2018-07-31T19:41:08.958Z,7.50
2018-07-31T19:43:37.093Z,8.80
2018-07-31T19:46:05.611Z,8.03
2018-07-31T19:48:33.681Z,8.27
2018-07-31T19:51:01.690Z,8.20
2018-07-31T19:53:29.288Z,8.40
2018-07-31T19:55:56.445Z,8.73
2018-07-31T19:58:23.656Z,8.47
2018-07-31T20:00:51.476Z,8.23
2018-07-31T20:03:18.609Z,9.20
2018-07-31T20:05:45.747Z,9.57
2018-07-31T20:08:12.937Z,8.13
2018-07-31T20:10:40.164Z,8.87
2018-07-31T20:13:07.566Z,8.90
2018-07-31T20:15:34.997Z,9.87
2018-07-31T20:18:02.882Z,7.97
2018-07-31T20:20:30.771Z,9.73
2018-07-31T20:22:58.079Z,8.97
2018-07-31T20:25:25.355Z,8.97
2018-07-31T20:27:52.467Z,9.27
2018-07-31T20:30:19.635Z,9.63
2018-07-31T20:32:47.666Z,9.93
2018-07-31T20:35:15.055Z,10.30
2018-07-31T20:37:42.316Z,10.17
2018-07-31T20:40:09.700Z,11.10
2018-07-31T20:42:37.325Z,10.57
2018-07-31T20:45:04.832Z,11.00
2018-07-31T20:47:32.495Z,10.73
2018-07-31T20:50:01.234Z,10.67
2018-07-31T20:52:28.612Z,10.77
2018-07-31T20:54:55.923Z,11.17
2018-07-31T20:57:23.068Z,9.93
2018-07-31T20:59:50.400Z,11.10
2018-07-31T21:02:17.581Z,10.70
2018-07-31T21:04:44.724Z,10.80
2018-07-31T21:07:11.917Z,9.97
2018-07-31T21:09:39.183Z,10.90
2018-07-31T21:12:06.691Z,9.50
2018-07-31T21:14:34.256Z,10.40
2018-07-31T21:17:01.905Z,10.63
2018-07-31T21:19:29.290Z,10.30
2018-07-31T21:21:56.541Z,10.70
2018-07-31T21:24:23.739Z,10.57
2018-07-31T21:26:50.941Z,10.87
2018-07-31T21:29:18.128Z,11.27
2018-07-31T21:31:45.292Z,10.87
2018-07-31T21:34:12.433Z,11.03
2018-07-31T21:36:40.131Z,10.87
2018-07-31T21:39:09.900Z,11.47
2018-07-31T21:41:37.361Z,11.63
2018-07-31T21:44:04.764Z,11.47
2018-07-31T21:46:32.522Z,11.73
2018-07-31T21:49:00.774Z,11.27
2018-07-31T21:51:28.209Z,11.33
2018-07-31T21:53:55.448Z,10.97
2018-07-31T21:56:22.602Z,10.80
2018-07-31T21:58:49.795Z,10.77
2018-07-31T22:01:17.069Z,10.77
2018-07-31T22:03:44.259Z,10.93
2018-07-31T22:06:11.438Z,12.40
2018-07-31T22:08:38.596Z,10.77
2018-07-31T22:11:05.825Z,11.70
2018-07-31T22:13:33.054Z,11.30
2018-07-31T22:16:00.260Z,11.07
2018-07-31T22:18:27.505Z,12.30
2018-07-31T22:20:55.033Z,12.27
2018-07-31T22:23:22.376Z,12.10
2018-07-31T22:25:50.460Z,12.37
2018-07-31T22:28:18.193Z,11.77
2018-07-31T22:30:45.387Z,12.37
2018-07-31T22:33:12.505Z,13.17
2018-07-31T22:35:39.827Z,13.03
2018-07-31T22:38:07.016Z,12.43
2018-07-31T22:40:34.219Z,12.77
2018-07-31T22:43:01.408Z,13.70
2018-07-31T22:45:28.759Z,13.50
2018-07-31T22:47:56.351Z,12.23
2018-07-31T22:50:23.866Z,12.90
2018-07-31T22:52:51.499Z,13.33
2018-07-31T22:55:19.364Z,13.13
2018-07-31T22:57:46.729Z,12.33
2018-07-31T23:00:13.960Z,13.17
2018-07-31T23:02:41.161Z,13.63
2018-07-31T23:05:10.244Z,13.23
2018-07-31T23:07:37.667Z,13.90
2018-07-31T23:10:04.847Z,13.00
2018-07-31T23:12:32.566Z,13.57
2018-07-31T23:15:00.959Z,13.73
2018-07-31T23:17:29.028Z,13.30
2018-07-31T23:19:58.145Z,13.20
2018-07-31T23:22:38.159Z,13.80
2018-07-31T23:25:05.999Z,12.20
2018-07-31T23:27:33.549Z,12.80
2018-07-31T23:30:00.797Z,13.90
2018-07-31T23:32:28.531Z,12.93
2018-07-31T23:34:55.967Z,13.63
2018-07-31T23:37:23.400Z,13.67
2018-07-31T23:39:52.172Z,14.07
2018-07-31T23:42:20.117Z,13.73
2018-07-31T23:44:47.902Z,13.97
2018-07-31T23:47:15.098Z,14.17
2018-07-31T23:49:42.288Z,13.63
2018-07-31T23:52:09.520Z,13.90
2018-07-31T23:54:36.691Z,14.77
2018-07-31T23:57:03.836Z,14.33
2018-07-31T23:59:30.973Z,14.83
